Time;durP1;ratioP1;P1;durP2;ratioP2;P2;SDS_P1;SDS_P2;PMS_P1;PMS_P2;Temp;Humidity;BMP_temperature;BMP_pressure;BME280_temperature;BME280_humidity;BME280_pressure;Samples;Min_cycle;Max_cycle;Signal;HPM_P1;HPM_P2
2021/01/13 00:00:07;;;;;;;107.25;55.47;;;77.50;1996.80;;;;;;5073141;28;20062;-67
2021/01/13 00:02:34;;;;;;;100.80;51.95;;;77.50;1996.80;;;;;;5074597;28;20028;-67
2021/01/13 00:05:02;;;;;;;108.95;53.58;;;77.50;2022.40;;;;;;5072952;28;20040;-67
2021/01/13 00:07:29;;;;;;;114.82;54.28;;;77.50;1996.80;;;;;;5074824;28;20123;-67
2021/01/13 00:10:00;;;;;;;104.75;53.22;;;77.50;1996.80;;;;;;5075324;28;20119;-67
2021/01/13 00:12:27;;;;;;;117.30;58.40;;;77.50;1996.80;;;;;;5075569;28;20031;-67
2021/01/13 00:14:58;;;;;;;112.55;57.72;;;77.60;1996.80;;;;;;5075995;28;20020;-67
2021/01/13 00:17:30;;;;;;;117.05;59.60;;;77.60;1996.80;;;;;;5076693;28;20091;-67
2021/01/13 00:20:02;;;;;;;130.57;63.22;;;77.60;1996.80;;;;;;5076882;28;20062;-67
2021/01/13 00:22:34;;;;;;;130.77;62.45;;;77.70;1996.80;;;;;;5075166;28;20067;-67
2021/01/13 00:25:07;;;;;;;128.80;65.50;;;77.70;1996.80;;;;;;5076906;28;20040;-67
2021/01/13 00:27:38;;;;;;;143.85;73.15;;;77.70;1996.80;;;;;;5076756;28;20074;-67
2021/01/13 00:30:11;;;;;;;163.10;81.80;;;77.70;1996.80;;;;;;5075592;28;20086;-67
2021/01/13 00:32:43;;;;;;;175.38;92.97;;;77.70;1996.80;;;;;;5076782;28;20374;-67
2021/01/13 00:35:15;;;;;;;236.15;120.88;;;102.40;1996.80;;;;;;5076593;28;20042;-67
2021/01/13 00:37:46;;;;;;;237.98;116.75;;;102.40;1996.80;;;;;;5076811;28;20408;-68
2021/01/13 00:40:17;;;;;;;209.55;104.05;;;102.40;1996.80;;;;;;5076497;28;20422;-67
2021/01/13 00:42:53;;;;;;;174.32;86.53;;;102.40;1996.80;;;;;;5076692;28;20134;-68
2021/01/13 00:45:27;;;;;;;168.77;82.07;;;102.40;1971.20;;;;;;5076597;28;20052;-68
2021/01/13 00:48:00;;;;;;;170.73;81.30;;;102.40;1971.20;;;;;;5076566;28;20029;-67
2021/01/13 00:50:31;;;;;;;158.45;79.47;;;102.40;1996.80;;;;;;5076456;28;20466;-68
2021/01/13 00:53:02;;;;;;;167.68;85.78;;;77.70;1996.80;;;;;;5075037;28;20094;-68
2021/01/13 00:55:34;;;;;;;194.27;97.10;;;77.70;1971.20;;;;;;5076515;28;20047;-68
2021/01/13 00:58:06;;;;;;;179.35;91.00;;;77.70;1971.20;;;;;;5076418;28;20032;-67
2021/01/13 01:00:35;;;;;;;173.88;84.72;;;77.70;1971.20;;;;;;5076436;28;20029;-68
2021/01/13 01:03:06;;;;;;;150.90;74.88;;;102.40;1996.80;;;;;;5074870;28;20409;-68
2021/01/13 01:05:38;;;;;;;155.48;76.32;;;102.40;1971.20;;;;;;5075885;28;20099;-67
2021/01/13 01:08:06;;;;;;;155.23;77.05;;;77.70;1971.20;;;;;;5075989;28;20025;-67
2021/01/13 01:10:38;;;;;;;180.00;88.82;;;77.60;1971.20;;;;;;5076143;28;20470;-68
2021/01/13 01:13:10;;;;;;;182.38;88.22;;;77.70;1971.20;;;;;;5075928;28;20020;-68
2021/01/13 01:15:41;;;;;;;173.13;86.45;;;77.70;1971.20;;;;;;5076193;28;20029;-68
2021/01/13 01:18:13;;;;;;;146.00;73.20;;;77.70;1971.20;;;;;;5076069;28;20024;-68
2021/01/13 01:20:42;;;;;;;147.13;69.95;;;102.40;1971.20;;;;;;5075756;28;20036;-68
2021/01/13 01:23:12;;;;;;;138.68;68.63;;;102.40;1971.20;;;;;;5075896;28;20458;-68
2021/01/13 01:25:44;;;;;;;135.95;67.00;;;102.40;1971.20;;;;;;5075701;28;20028;-68
2021/01/13 01:28:15;;;;;;;146.68;72.13;;;77.70;1971.20;;;;;;5075108;28;20062;-68
2021/01/13 01:30:47;;;;;;;150.65;74.28;;;77.70;1971.20;;;;;;5075805;28;20020;-68
2021/01/13 01:33:18;;;;;;;185.10;91.28;;;77.70;1996.80;;;;;;5075692;28;20098;-68
2021/01/13 01:35:51;;;;;;;190.38;92.45;;;77.70;1971.20;;;;;;5075391;28;20016;-68
2021/01/13 01:38:22;;;;;;;163.88;80.95;;;77.70;1971.20;;;;;;5075772;28;20025;-68
2021/01/13 01:41:01;;;;;;;138.93;69.70;;;77.70;1971.20;;;;;;5075542;28;20106;-68
2021/01/13 01:43:32;;;;;;;127.55;63.67;;;77.70;1971.20;;;;;;5075446;28;20021;-68
2021/01/13 01:46:05;;;;;;;117.15;57.33;;;77.70;1971.20;;;;;;5075755;28;20016;-68
2021/01/13 01:48:58;;;;;;;108.20;54.20;;;77.70;1996.80;;;;;;5074111;28;20036;-68
2021/01/13 01:51:41;;;;;;;107.72;51.85;;;77.70;1971.20;;;;;;5075348;28;20024;-67
2021/01/13 01:54:33;;;;;;;104.80;55.58;;;77.70;1996.80;;;;;;5075120;28;20462;-69
2021/01/13 01:57:09;;;;;;;101.97;50.63;;;77.60;1996.80;;;;;;5074910;28;20071;-68
2021/01/13 02:00:13;;;;;;;106.03;49.67;;;77.70;1971.20;;;;;;5075623;28;20025;-68
2021/01/13 02:02:49;;;;;;;100.03;48.72;;;77.70;1996.80;;;;;;5075127;28;20116;-68
2021/01/13 02:05:22;;;;;;;112.00;50.50;;;77.70;1996.80;;;;;;5074811;28;20375;-69
2021/01/13 02:08:00;;;;;;;101.03;48.30;;;77.70;1996.80;;;;;;5074982;28;20381;-68
2021/01/13 02:10:31;;;;;;;103.53;48.83;;;77.60;1996.80;;;;;;5074877;28;20459;-69
2021/01/13 02:13:09;;;;;;;106.82;49.65;;;77.60;1996.80;;;;;;5074850;28;20052;-68
2021/01/13 02:15:40;;;;;;;108.63;50.42;;;77.60;1996.80;;;;;;5074544;28;20465;-68
2021/01/13 02:18:21;;;;;;;115.03;51.13;;;77.60;1996.80;;;;;;5090295;28;20047;-68
2021/01/13 02:21:06;;;;;;;109.90;51.33;;;77.70;1996.80;;;;;;5074531;28;20407;-69
2021/01/13 02:23:44;;;;;;;105.03;48.35;;;77.70;1996.80;;;;;;5074676;28;20493;-68
2021/01/13 02:26:36;;;;;;;93.72;48.17;;;77.70;1996.80;;;;;;5074688;28;20425;-68
2021/01/13 02:29:32;;;;;;;92.32;45.00;;;77.70;1996.80;;;;;;5074528;28;20043;-68
2021/01/13 02:32:29;;;;;;;88.03;43.10;;;102.40;1996.80;;;;;;5074644;28;20074;-69
2021/01/13 02:35:18;;;;;;;83.28;44.22;;;102.40;1996.80;;;;;;5074385;28;20386;-68
2021/01/13 02:38:05;;;;;;;89.50;44.45;;;102.40;1996.80;;;;;;5074281;28;20108;-68
2021/01/13 02:40:42;;;;;;;83.82;43.20;;;102.40;1971.20;;;;;;5074327;28;20031;-68
2021/01/13 02:43:17;;;;;;;82.28;42.15;;;102.40;1971.20;;;;;;5074292;28;20107;-68
2021/01/13 02:45:50;;;;;;;83.70;41.60;;;102.40;1971.20;;;;;;5074102;28;20024;-68
2021/01/13 02:48:22;;;;;;;78.72;39.42;;;102.50;1971.20;;;;;;5072853;28;20044;-68
2021/01/13 02:50:57;;;;;;;78.78;40.35;;;102.50;1971.20;;;;;;5074080;28;20538;-68
2021/01/13 02:53:37;;;;;;;73.28;38.70;;;102.40;1971.20;;;;;;5073819;28;20044;-68
2021/01/13 02:56:23;;;;;;;78.18;40.35;;;102.50;1945.60;;;;;;5072520;28;20441;-68
2021/01/13 02:59:05;;;;;;;76.90;39.60;;;102.60;1945.60;;;;;;5074066;28;20417;-68
2021/01/13 03:01:39;;;;;;;76.50;38.95;;;102.50;1945.60;;;;;;5072898;28;20119;-68
2021/01/13 03:04:12;;;;;;;79.88;38.95;;;102.50;1945.60;;;;;;5074041;28;20048;-68
2021/01/13 03:06:48;;;;;;;73.97;38.45;;;102.60;1971.20;;;;;;5073702;28;20041;-68
2021/01/13 03:09:21;;;;;;;76.72;39.13;;;102.50;1945.60;;;;;;5073533;28;20028;-68
2021/01/13 03:11:52;;;;;;;76.50;37.45;;;102.60;1971.20;;;;;;5074042;28;20016;-68
2021/01/13 03:14:28;;;;;;;75.13;38.42;;;102.60;1971.20;;;;;;5073838;28;20029;-68
2021/01/13 03:17:26;;;;;;;71.40;36.05;;;102.60;1971.20;;;;;;5074014;28;20044;-67
2021/01/13 03:20:13;;;;;;;70.55;35.53;;;102.50;1945.60;;;;;;5073798;28;20036;-68
2021/01/13 03:23:16;;;;;;;72.43;36.58;;;102.40;1971.20;;;;;;5073704;28;20021;-68
2021/01/13 03:25:53;;;;;;;73.03;37.90;;;102.40;1971.20;;;;;;5073266;28;20113;-68
2021/01/13 03:28:28;;;;;;;69.95;36.58;;;102.40;1945.60;;;;;;5073446;28;20041;-68
2021/01/13 03:31:01;;;;;;;72.70;37.45;;;102.40;1971.20;;;;;;5073645;28;20025;-68
2021/01/13 03:33:44;;;;;;;73.07;37.17;;;102.50;1971.20;;;;;;5073827;28;20036;-68
2021/01/13 03:36:42;;;;;;;74.72;38.45;;;102.50;1971.20;;;;;;5073492;28;20048;-68
2021/01/13 03:39:21;;;;;;;68.28;36.72;;;102.60;1971.20;;;;;;5073877;28;20036;-68
2021/01/13 03:42:04;;;;;;;67.85;36.13;;;102.60;1971.20;;;;;;5073642;28;20099;-68
2021/01/13 03:44:37;;;;;;;84.25;43.60;;;102.60;1945.60;;;;;;5073450;28;20062;-68
2021/01/13 03:47:16;;;;;;;143.18;68.75;;;102.60;1945.60;;;;;;5073508;28;20462;-68
2021/01/13 03:50:09;;;;;;;126.05;62.55;;;102.60;1945.60;;;;;;5073615;28;20040;-68
2021/01/13 03:53:08;;;;;;;106.88;50.30;;;102.50;1971.20;;;;;;5073266;28;20020;-70
2021/01/13 03:55:40;;;;;;;81.90;41.83;;;102.50;1971.20;;;;;;5069448;28;20040;-68
2021/01/13 03:58:26;;;;;;;78.60;40.50;;;102.60;1971.20;;;;;;5073413;28;20112;-72
2021/01/13 04:01:26;;;;;;;78.72;40.42;;;102.60;1971.20;;;;;;5073326;28;20086;-68
2021/01/13 04:04:10;;;;;;;77.97;37.38;;;102.60;1945.60;;;;;;5073306;28;20024;-68
2021/01/13 04:06:44;;;;;;;74.15;36.60;;;102.60;1996.80;;;;;;5073007;28;20070;-68
2021/01/13 04:09:15;;;;;;;65.13;34.00;;;102.60;1971.20;;;;;;5073384;28;20132;-68
2021/01/13 04:11:49;;;;;;;65.45;34.55;;;102.60;1971.20;;;;;;5073174;28;20036;-69
2021/01/13 04:14:24;;;;;;;84.30;38.55;;;102.60;1945.60;;;;;;5073271;28;20024;-69
2021/01/13 04:16:54;;;;;;;129.75;56.50;;;102.70;1971.20;;;;;;5073443;28;20135;-74
2021/01/13 04:19:23;;;;;;;143.10;64.28;;;102.70;1971.20;;;;;;5073211;28;20425;-68
2021/01/13 04:22:02;;;;;;;129.88;62.08;;;102.90;2048.00;;;;;;5073176;28;20028;-69
2021/01/13 04:24:33;;;;;;;106.55;54.35;;;102.90;1996.80;;;;;;5073218;28;20017;-69
2021/01/13 04:27:06;;;;;;;99.32;49.10;;;102.90;1971.20;;;;;;5073144;28;20433;-69
2021/01/13 04:29:37;;;;;;;102.05;50.00;;;102.80;1971.20;;;;;;5072973;28;20086;-69
2021/01/13 04:32:11;;;;;;;82.72;42.33;;;102.80;1971.20;;;;;;5073246;28;20024;-69
2021/01/13 04:34:43;;;;;;;74.47;40.05;;;102.90;1945.60;;;;;;5072971;28;20078;-68
2021/01/13 04:37:21;;;;;;;91.55;47.30;;;102.80;1945.60;;;;;;5071866;28;20124;-68
2021/01/13 04:39:53;;;;;;;108.78;56.60;;;102.90;1945.60;;;;;;5076657;28;20059;-68
2021/01/13 04:42:46;;;;;;;125.65;62.38;;;102.80;1945.60;;;;;;5076807;28;20020;-68
2021/01/13 04:45:46;;;;;;;137.27;66.47;;;102.80;1920.00;;;;;;5076556;28;20024;-69
2021/01/13 04:48:24;;;;;;;117.05;59.50;;;102.80;1945.60;;;;;;5076487;28;20501;-69
2021/01/13 04:50:57;;;;;;;94.78;49.30;;;102.80;1920.00;;;;;;5076410;28;20025;-69
2021/01/13 04:53:33;;;;;;;81.10;42.65;;;102.80;1920.00;;;;;;5076650;28;20074;-69
2021/01/13 04:56:09;;;;;;;75.47;39.17;;;102.90;1920.00;;;;;;5076423;28;20039;-68
2021/01/13 04:58:56;;;;;;;73.43;37.75;;;102.80;1920.00;;;;;;5076598;28;20048;-68
2021/01/13 05:01:58;;;;;;;74.00;38.20;;;102.80;1920.00;;;;;;5076521;28;20025;-69
2021/01/13 05:05:05;;;;;;;69.90;35.42;;;102.90;1920.00;;;;;;5076137;28;20462;-69
2021/01/13 05:07:43;;;;;;;71.43;35.83;;;102.80;1920.00;;;;;;5075983;28;20109;-69
2021/01/13 05:10:19;;;;;;;68.40;34.97;;;102.80;1920.00;;;;;;5076091;28;20031;-69
2021/01/13 05:12:55;;;;;;;70.18;35.88;;;102.80;1920.00;;;;;;5076082;28;20025;-69
2021/01/13 05:15:27;;;;;;;75.07;37.63;;;102.80;1920.00;;;;;;5076171;28;20033;-68
2021/01/13 05:18:08;;;;;;;72.40;38.35;;;102.70;1920.00;;;;;;5076041;28;20048;-69
2021/01/13 05:20:43;;;;;;;69.32;36.38;;;102.70;1920.00;;;;;;5075646;28;20162;-69
2021/01/13 05:23:17;;;;;;;64.18;34.60;;;102.70;1945.60;;;;;;5075995;28;20017;-68
2021/01/13 05:25:58;;;;;;;63.70;33.70;;;102.70;1945.60;;;;;;5075814;28;20035;-68
2021/01/13 05:28:39;;;;;;;70.70;38.00;;;102.60;1920.00;;;;;;5076108;28;20582;-68
2021/01/13 05:31:17;;;;;;;65.38;35.25;;;102.60;1945.60;;;;;;5075634;28;20029;-69
2021/01/13 05:33:49;;;;;;;62.15;34.22;;;102.60;1945.60;;;;;;5075785;28;20021;-68
2021/01/13 05:36:23;;;;;;;68.13;34.33;;;102.60;1945.60;;;;;;5075774;28;20059;-69
2021/01/13 05:39:10;;;;;;;67.93;35.92;;;102.60;1945.60;;;;;;5074484;28;20491;-69
2021/01/13 05:41:43;;;;;;;74.05;37.80;;;102.60;1945.60;;;;;;5075733;28;20028;-69
2021/01/13 05:44:18;;;;;;;66.95;34.35;;;102.60;1945.60;;;;;;5075467;28;20021;-69
2021/01/13 05:46:56;;;;;;;66.55;34.42;;;102.60;1945.60;;;;;;5075379;28;20054;-72
2021/01/13 05:49:29;;;;;;;65.28;33.95;;;102.70;1920.00;;;;;;5074656;28;20044;-69
2021/01/13 05:52:08;;;;;;;75.55;38.90;;;102.70;1920.00;;;;;;5075165;28;20020;-68
2021/01/13 05:54:40;;;;;;;97.82;48.28;;;102.70;1920.00;;;;;;5075833;28;20496;-64
2021/01/13 05:57:13;;;;;;;140.68;76.18;;;102.70;1920.00;;;;;;5075132;28;20020;-65
2021/01/13 05:59:51;;;;;;;118.75;64.25;;;102.70;1920.00;;;;;;5075655;28;20029;-64
2021/01/13 06:02:25;;;;;;;104.03;57.72;;;102.70;1920.00;;;;;;5075585;28;20340;-64
2021/01/13 06:05:01;;;;;;;103.37;55.77;;;102.70;1920.00;;;;;;5074841;28;20053;-64
2021/01/13 06:07:33;;;;;;;106.55;58.63;;;102.70;1920.00;;;;;;5074681;28;20260;-65
2021/01/13 06:10:06;;;;;;;101.65;56.10;;;102.70;1920.00;;;;;;5075167;28;20457;-63
2021/01/13 06:12:46;;;;;;;89.35;48.70;;;102.70;1920.00;;;;;;5074999;28;20017;-70
2021/01/13 06:15:33;;;;;;;92.63;47.55;;;102.60;1945.60;;;;;;5075479;28;20024;-64
2021/01/13 06:18:02;;;;;;;89.30;45.13;;;102.60;1945.60;;;;;;5074855;28;20112;-63
2021/01/13 06:20:34;;;;;;;89.68;45.28;;;102.60;1945.60;;;;;;5074840;28;20031;-64
2021/01/13 06:23:11;;;;;;;88.13;42.65;;;102.50;1945.60;;;;;;5074629;28;20086;-64
2021/01/13 06:25:44;;;;;;;88.80;44.15;;;102.50;1945.60;;;;;;5074842;28;20370;-64
2021/01/13 06:28:50;;;;;;;82.68;42.75;;;102.50;1945.60;;;;;;5074667;28;20056;-63
2021/01/13 06:31:26;;;;;;;128.98;57.33;;;102.50;1945.60;;;;;;5074783;28;20035;-63
2021/01/13 06:34:13;;;;;;;109.38;58.80;;;102.50;1945.60;;;;;;5074612;28;20085;-67
2021/01/13 06:37:05;;;;;;;111.93;59.92;;;102.50;2022.40;;;;;;5074293;28;20162;-64
2021/01/13 06:39:37;;;;;;;105.00;54.17;;;102.60;1971.20;;;;;;5074361;28;20108;-64
2021/01/13 06:42:04;;;;;;;98.28;50.63;;;102.60;1945.60;;;;;;5074432;28;20082;-63
2021/01/13 06:44:48;;;;;;;88.72;43.45;;;102.60;1945.60;;;;;;5075014;28;20020;-63
2021/01/13 06:47:20;;;;;;;84.00;43.83;;;102.50;1945.60;;;;;;5072867;28;20028;-64
2021/01/13 06:49:50;;;;;;;86.18;43.20;;;102.50;1945.60;;;;;;5074203;28;20024;-66
2021/01/13 06:52:37;;;;;;;89.35;45.50;;;102.40;1945.60;;;;;;5074194;28;20032;-63
2021/01/13 06:55:09;;;;;;;93.40;46.78;;;102.40;1945.60;;;;;;5074080;28;20535;-64
2021/01/13 06:57:42;;;;;;;105.68;54.65;;;102.40;1971.20;;;;;;5074003;28;20016;-64
2021/01/13 07:00:22;;;;;;;107.90;52.15;;;102.40;1971.20;;;;;;5074756;28;20082;-64
2021/01/13 07:02:53;;;;;;;102.60;51.72;;;102.40;1971.20;;;;;;5073554;28;20017;-63
2021/01/13 07:05:37;;;;;;;105.47;52.25;;;102.40;1971.20;;;;;;5073765;28;20090;-63
2021/01/13 07:08:10;;;;;;;98.28;50.25;;;102.40;1971.20;;;;;;5073909;28;20032;-63
2021/01/13 07:10:42;;;;;;;96.32;49.95;;;102.40;1945.60;;;;;;5073932;28;20025;-63
2021/01/13 07:13:15;;;;;;;112.82;58.22;;;102.40;1971.20;;;;;;5072613;28;20111;-64
2021/01/13 07:15:48;;;;;;;112.78;59.63;;;102.40;1971.20;;;;;;5073845;28;20078;-63
2021/01/13 07:18:20;;;;;;;123.35;67.47;;;102.40;1971.20;;;;;;5073774;28;20111;-64
2021/01/13 07:20:49;;;;;;;126.95;64.18;;;77.70;1971.20;;;;;;5072752;28;20461;-63
2021/01/13 07:23:20;;;;;;;110.45;53.97;;;77.70;1945.60;;;;;;5071581;28;20020;-63
2021/01/13 07:25:54;;;;;;;126.60;58.88;;;102.40;1945.60;;;;;;5072886;28;20496;-63
2021/01/13 07:28:26;;;;;;;123.97;58.33;;;77.70;1971.20;;;;;;5072706;28;20094;-64
2021/01/13 07:30:58;;;;;;;117.95;55.28;;;77.70;1971.20;;;;;;5072812;28;20032;-64
2021/01/13 07:33:36;;;;;;;127.85;58.13;;;77.70;1945.60;;;;;;5072567;28;20033;-64
2021/01/13 07:36:12;;;;;;;127.38;56.95;;;77.70;1945.60;;;;;;5071756;28;20105;-63
2021/01/13 07:38:47;;;;;;;118.90;53.38;;;77.70;1971.20;;;;;;5072599;28;20021;-64
2021/01/13 07:41:51;;;;;;;126.72;56.65;;;77.60;1945.60;;;;;;5072596;28;20470;-63
2021/01/13 07:44:53;;;;;;;119.38;54.45;;;77.50;1945.60;;;;;;5064163;28;20032;-63
2021/01/13 07:47:32;;;;;;;104.82;48.28;;;77.50;1971.20;;;;;;5010690;28;20422;-63
2021/01/13 07:50:13;;;;;;;106.55;50.35;;;77.50;1971.20;;;;;;5011560;28;20041;-67
2021/01/13 07:52:52;;;;;;;112.93;53.92;;;77.50;1971.20;;;;;;5011744;28;20380;-64
2021/01/13 07:55:24;;;;;;;138.20;60.47;;;77.50;1971.20;;;;;;5011639;28;20551;-64
2021/01/13 07:57:57;;;;;;;135.70;57.97;;;77.50;1971.20;;;;;;5011650;28;20129;-64
2021/01/13 08:00:31;;;;;;;162.52;64.07;;;77.40;1971.20;;;;;;5011544;28;20036;-64
2021/01/13 08:03:37;;;;;;;181.20;73.13;;;77.50;1971.20;;;;;;5011613;28;20038;-64
2021/01/13 08:06:21;;;;;;;;;;;77.40;1971.20;;;;;;5011689;28;20050;-64
2021/01/13 08:09:19;;;;;;;137.27;59.38;;;77.50;1971.20;;;;;;5011461;28;20037;-63
2021/01/13 08:12:16;;;;;;;133.88;60.45;;;77.40;1971.20;;;;;;5011647;28;20558;-64
2021/01/13 08:15:15;;;;;;;146.15;66.68;;;77.40;1971.20;;;;;;5015444;28;20495;-64
2021/01/13 08:18:14;;;;;;;140.32;61.65;;;77.50;1971.20;;;;;;5015420;28;20089;-63
2021/01/13 08:24:15;;;;;;;160.13;65.78;;;77.50;1971.20;;;;;;5074147;28;20070;-63
2021/01/13 08:26:47;;;;;;;135.48;60.03;;;77.50;1971.20;;;;;;5077154;28;20070;-63
2021/01/13 08:29:21;;;;;;;120.85;55.10;;;77.60;1971.20;;;;;;5076885;28;20036;-64
2021/01/13 08:32:10;;;;;;;133.63;55.05;;;77.70;1971.20;;;;;;5076712;28;20086;-64
2021/01/13 08:34:44;;;;;;;130.07;55.17;;;102.40;1945.60;;;;;;5076802;28;20099;-63
2021/01/13 08:37:16;;;;;;;111.80;53.80;;;102.50;1945.60;;;;;;5076620;28;20127;-64
2021/01/13 08:39:48;;;;;;;103.72;49.92;;;102.60;1945.60;;;;;;5076742;28;20090;-63
2021/01/13 08:42:36;;;;;;;97.30;46.15;;;102.60;1945.60;;;;;;5076762;28;20078;-63
2021/01/13 08:45:08;;;;;;;89.28;44.72;;;102.60;1945.60;;;;;;5076738;28;20013;-62
2021/01/13 08:48:26;;;;;;;85.90;44.90;;;102.70;1945.60;;;;;;5076525;28;20497;-63
2021/01/13 08:51:13;;;;;;;73.65;40.85;;;102.70;1920.00;;;;;;5014603;28;20030;-65
2021/01/13 08:53:41;;;;;;;85.50;45.10;;;102.80;1945.60;;;;;;5014790;28;20476;-65
2021/01/13 08:56:13;;;;;;;85.97;46.42;;;102.80;1920.00;;;;;;5014810;28;20118;-65
2021/01/13 08:58:57;;;;;;;80.70;45.55;;;102.80;1920.00;;;;;;5014640;28;20057;-65
2021/01/13 09:01:36;;;;;;;89.45;48.15;;;102.80;1920.00;;;;;;5014096;28;20396;-63
2021/01/13 09:04:10;;;;;;;93.55;49.65;;;102.90;1920.00;;;;;;5013576;28;20487;-63
2021/01/13 09:06:40;;;;;;;95.55;49.58;;;102.90;1920.00;;;;;;5012389;28;20100;-65
2021/01/13 09:09:14;;;;;;;90.35;46.83;;;102.90;1920.00;;;;;;5012720;28;20124;-65
2021/01/13 09:11:45;;;;;;;85.38;44.95;;;102.90;1920.00;;;;;;5012774;28;20041;-66
2021/01/13 09:14:19;;;;;;;81.25;40.83;;;103.00;1920.00;;;;;;5012843;28;20053;-63
2021/01/13 09:16:57;;;;;;;81.63;44.75;;;103.10;1894.40;;;;;;5013223;28;20021;-66
2021/01/13 09:19:37;;;;;;;109.82;59.35;;;103.20;1894.40;;;;;;5010461;28;20033;-64
2021/01/13 09:22:10;;;;;;;98.22;53.38;;;103.30;1894.40;;;;;;5013567;28;20088;-65
2021/01/13 09:24:42;;;;;;;79.35;45.42;;;128.00;1894.40;;;;;;5011678;28;20026;-69
2021/01/13 09:27:13;;;;;;;77.43;38.78;;;128.00;1894.40;;;;;;5039038;28;20033;-65
2021/01/13 09:29:56;;;;;;;75.28;38.67;;;128.00;1894.40;;;;;;5074441;28;20470;-65
2021/01/13 09:32:28;;;;;;;60.67;34.45;;;103.30;1868.80;;;;;;5075764;28;20028;-65
2021/01/13 09:35:00;;;;;;;76.35;38.90;;;103.20;1868.80;;;;;;5075816;28;20028;-65
2021/01/13 09:37:49;;;;;;;84.22;40.60;;;128.00;1920.00;;;;;;5075544;28;20031;-65
2021/01/13 09:40:22;;;;;;;83.35;44.85;;;128.00;1920.00;;;;;;5075510;28;20036;-65
2021/01/13 09:43:03;;;;;;;85.78;47.70;;;128.00;1894.40;;;;;;5075499;28;20024;-64
2021/01/13 09:45:51;;;;;;;97.18;57.42;;;128.00;1894.40;;;;;;5075505;28;20108;-64
2021/01/13 09:48:20;;;;;;;118.75;71.78;;;128.00;1920.00;;;;;;5075318;28;20115;-73
2021/01/13 09:51:15;;;;;;;106.50;65.13;;;103.30;1868.80;;;;;;5075504;28;20394;-64
2021/01/13 09:53:56;;;;;;;84.13;49.40;;;128.00;1894.40;;;;;;5075010;28;20386;-64
2021/01/13 09:56:25;;;;;;;72.10;40.08;;;128.00;1920.00;;;;;;5073859;28;20415;-64
2021/01/13 09:58:59;;;;;;;62.67;36.70;;;103.30;1868.80;;;;;;5074647;28;20029;-64
2021/01/13 10:01:39;;;;;;;80.05;40.78;;;103.20;1945.60;;;;;;5075286;28;20028;-69
2021/01/13 10:04:13;;;;;;;125.85;65.22;;;103.20;1894.40;;;;;;5074921;28;20478;-64
2021/01/13 10:06:51;;;;;;;120.18;62.17;;;103.30;1894.40;;;;;;5074880;28;20132;-64
2021/01/13 10:09:23;;;;;;;115.47;63.78;;;128.10;1945.60;;;;;;5074745;28;20060;-63
2021/01/13 10:11:58;;;;;;;102.88;55.63;;;128.20;1920.00;;;;;;5074358;28;20034;-64
2021/01/13 10:14:33;;;;;;;78.35;44.42;;;128.40;1920.00;;;;;;5074346;28;20390;-63
2021/01/13 10:17:06;;;;;;;71.05;41.60;;;128.50;1894.40;;;;;;5074699;28;20021;-63
2021/01/13 10:19:37;;;;;;;62.63;34.50;;;128.80;1894.40;;;;;;5075075;28;20078;-63
2021/01/13 10:22:12;;;;;;;53.67;30.92;;;128.90;1868.80;;;;;;5074741;28;20071;-63
2021/01/13 10:24:44;;;;;;;55.85;31.83;;;153.60;1868.80;;;;;;5074608;28;20078;-63
2021/01/13 10:27:17;;;;;;;64.03;32.40;;;153.70;1843.20;;;;;;5074844;28;20025;-63
2021/01/13 10:29:49;;;;;;;73.55;34.90;;;153.70;1817.60;;;;;;5074092;28;20428;-62
2021/01/13 10:32:21;;;;;;;73.88;39.65;;;153.80;1843.20;;;;;;5074701;28;20033;-63
2021/01/13 10:34:59;;;;;;;71.35;40.10;;;153.90;1817.60;;;;;;5074639;28;20433;-63
2021/01/13 10:37:48;;;;;;;66.13;36.90;;;154.00;1792.00;;;;;;5074149;28;20021;-63
2021/01/13 10:40:21;;;;;;;61.58;36.38;;;154.10;1792.00;;;;;;5074396;28;20056;-63
2021/01/13 10:42:51;;;;;;;57.53;35.22;;;154.10;1792.00;;;;;;5074365;28;20029;-63
2021/01/13 10:45:24;;;;;;;52.47;33.13;;;154.20;1766.40;;;;;;5074166;28;20467;-63
2021/01/13 10:48:03;;;;;;;52.00;29.20;;;154.20;1766.40;;;;;;5073600;28;20040;-64
2021/01/13 10:50:32;;;;;;;52.08;29.95;;;154.20;1792.00;;;;;;5074361;28;20095;-63
2021/01/13 10:53:02;;;;;;;59.28;31.90;;;154.20;1766.40;;;;;;5074074;28;20029;-64
2021/01/13 10:55:38;;;;;;;47.92;29.00;;;154.30;1766.40;;;;;;5073748;28;20025;-63
2021/01/13 10:58:15;;;;;;;50.60;28.42;;;154.30;1766.40;;;;;;5074127;28;20059;-62
2021/01/13 11:00:45;;;;;;;69.50;37.67;;;154.40;1740.80;;;;;;5073678;28;20032;-63
2021/01/13 11:03:16;;;;;;;102.75;52.55;;;154.30;1740.80;;;;;;5074123;28;20169;-63
2021/01/13 11:05:45;;;;;;;109.47;55.67;;;154.40;1740.80;;;;;;5073731;28;20036;-64
2021/01/13 11:08:16;;;;;;;83.78;47.40;;;154.40;1740.80;;;;;;5073531;28;20041;-63
2021/01/13 11:10:48;;;;;;;52.08;30.60;;;154.40;1715.20;;;;;;5074041;28;20120;-62
2021/01/13 11:13:15;;;;;;;47.35;25.13;;;154.40;1740.80;;;;;;5074231;28;20020;-62
2021/01/13 11:15:43;;;;;;;36.95;23.85;;;154.40;1740.80;;;;;;5074016;28;20374;-62
2021/01/13 11:18:16;;;;;;;31.40;20.35;;;154.40;1740.80;;;;;;5074082;28;20126;-63
2021/01/13 11:20:52;;;;;;;36.03;19.77;;;154.50;1740.80;;;;;;5073952;28;20024;-63
2021/01/13 11:23:24;;;;;;;42.03;23.80;;;154.50;1740.80;;;;;;5074032;28;20051;-63
2021/01/13 11:25:56;;;;;;;41.80;23.83;;;179.20;1740.80;;;;;;5073086;28;20032;-64
2021/01/13 11:28:31;;;;;;;36.80;20.63;;;179.20;1715.20;;;;;;5073540;28;20160;-63
2021/01/13 11:30:57;;;;;;;33.85;20.65;;;179.20;1715.20;;;;;;5072634;28;20028;-68
2021/01/13 11:33:29;;;;;;;100.53;51.67;;;179.20;1715.20;;;;;;5073005;28;20028;-63
2021/01/13 11:36:03;;;;;;;48.63;28.63;;;179.30;1766.40;;;;;;5073662;28;20025;-64
2021/01/13 11:38:51;;;;;;;48.15;26.00;;;179.30;1715.20;;;;;;5073800;28;20031;-64
2021/01/13 11:41:51;;;;;;;37.17;21.58;;;179.30;1715.20;;;;;;5073522;28;20031;-62
2021/01/13 11:44:30;;;;;;;30.88;18.60;;;179.30;1715.20;;;;;;5073268;28;20040;-62
2021/01/13 11:47:01;;;;;;;30.75;17.38;;;179.30;1689.60;;;;;;5073885;28;20055;-64
2021/01/13 11:49:49;;;;;;;34.15;18.90;;;179.30;1689.60;;;;;;5077875;28;20059;-63
2021/01/13 11:52:22;;;;;;;27.98;16.77;;;179.30;1689.60;;;;;;5077425;28;20025;-63
2021/01/13 11:54:54;;;;;;;28.60;15.48;;;179.30;1689.60;;;;;;5077436;28;20529;-62
2021/01/13 11:57:38;;;;;;;22.30;13.88;;;179.40;1689.60;;;;;;5077639;28;20033;-73
2021/01/13 12:00:32;;;;;;;43.15;19.13;;;179.40;1689.60;;;;;;5077565;28;20033;-64
2021/01/13 12:03:03;;;;;;;30.38;16.83;;;179.40;1689.60;;;;;;5078189;28;20071;-63
2021/01/13 12:05:41;;;;;;;25.88;15.95;;;179.40;1689.60;;;;;;5077244;28;20445;-63
2021/01/13 12:08:15;;;;;;;27.08;16.30;;;179.40;1715.20;;;;;;5077358;28;20037;-64
2021/01/13 12:10:55;;;;;;;30.50;15.82;;;179.40;1715.20;;;;;;5077436;28;20099;-63
2021/01/13 12:13:30;;;;;;;24.63;13.60;;;179.40;1715.20;;;;;;5076847;28;20077;-63
2021/01/13 12:15:59;;;;;;;;;;;179.40;1689.60;;;;;;5077503;28;20099;-64
2021/01/13 12:18:46;;;;;;;38.13;16.00;;;179.40;1689.60;;;;;;5077280;28;20266;-64
2021/01/13 12:21:21;;;;;;;26.65;16.95;;;179.40;1689.60;;;;;;5076764;28;20070;-64
2021/01/13 12:23:51;;;;;;;37.95;19.40;;;179.40;1689.60;;;;;;5076995;28;20028;-64
2021/01/13 12:26:36;;;;;;;31.00;16.38;;;179.30;1689.60;;;;;;5073170;28;20025;-62
2021/01/13 12:29:01;;;;;;;26.10;14.52;;;179.40;1689.60;;;;;;5074534;28;20039;-63
2021/01/13 12:31:40;;;;;;;27.38;15.02;;;179.30;1689.60;;;;;;5074611;28;20025;-63
2021/01/13 12:34:29;;;;;;;22.50;13.18;;;179.30;1689.60;;;;;;5075732;28;20107;-63
2021/01/13 12:37:06;;;;;;;23.85;13.68;;;179.40;1689.60;;;;;;5075853;28;20104;-63
2021/01/13 12:39:35;;;;;;;33.90;16.25;;;179.30;1689.60;;;;;;5075275;28;20088;-63
2021/01/13 12:42:08;;;;;;;19.25;12.25;;;179.30;1689.60;;;;;;5075694;28;20020;-62
2021/01/13 12:44:37;;;;;;;32.67;14.40;;;179.30;1689.60;;;;;;5075709;28;20017;-69
2021/01/13 12:47:09;;;;;;;20.98;13.07;;;179.30;1715.20;;;;;;5075285;28;20025;-64
2021/01/13 12:49:42;;;;;;;19.85;12.07;;;179.30;1715.20;;;;;;5075643;28;20051;-77